Time;durP1;ratioP1;P1;durP2;ratioP2;P2;SDS_P1;SDS_P2;PMS_P1;PMS_P2;Temp;Humidity;BMP_temperature;BMP_pressure;BME280_temperature;BME280_humidity;BME280_pressure;Samples;Min_cycle;Max_cycle;Signal;HPM_P1;HPM_P2
2022/12/01 00:01:13;;;;;;;83.70;39.88;;;6.70;99.90;;;;;;5073819;28;20041;-69
2022/12/01 00:03:39;;;;;;;84.63;41.33;;;6.60;99.90;;;;;;5073720;28;20404;-69
2022/12/01 00:06:16;;;;;;;77.70;38.60;;;6.70;99.90;;;;;;5073730;28;20037;-69
2022/12/01 00:10:24;;;;;;;76.53;39.08;;;6.70;99.90;;;;;;5073708;28;20089;-69
2022/12/01 00:11:28;;;;;;;76.25;38.88;;;6.70;99.90;;;;;;5074602;28;20076;-69
2022/12/01 00:13:54;;;;;;;81.78;40.80;;;6.70;99.90;;;;;;5073422;28;20053;-69
2022/12/01 00:16:20;;;;;;;86.38;40.15;;;6.70;99.90;;;;;;5073467;28;20536;-69
2022/12/01 00:18:49;;;;;;;73.10;38.08;;;6.60;99.90;;;;;;5073486;28;20041;-69
2022/12/01 00:21:17;;;;;;;82.28;40.13;;;6.70;99.90;;;;;;5073407;28;20041;-69
2022/12/01 00:23:47;;;;;;;81.20;39.80;;;6.60;99.90;;;;;;5073522;28;20052;-69
2022/12/01 00:26:17;;;;;;;80.35;39.72;;;6.60;99.90;;;;;;5073343;28;20040;-69
2022/12/01 00:28:43;;;;;;;81.53;41.75;;;6.60;99.90;;;;;;5072952;28;20040;-69
2022/12/01 00:31:10;;;;;;;82.72;40.13;;;6.60;99.90;;;;;;5073476;28;20139;-69
2022/12/01 00:33:36;;;;;;;81.43;39.47;;;6.60;99.90;;;;;;5073005;28;20045;-69
2022/12/01 00:36:02;;;;;;;75.38;38.63;;;6.60;99.90;;;;;;5073103;28;20040;-69
2022/12/01 00:38:28;;;;;;;78.85;38.97;;;6.60;99.90;;;;;;5073282;28;20045;-69
2022/12/01 00:40:53;;;;;;;79.25;39.78;;;6.60;99.90;;;;;;5073018;28;20037;-69
2022/12/01 00:43:19;;;;;;;75.90;38.40;;;6.60;99.90;;;;;;5073142;28;20048;-69
2022/12/01 00:45:44;;;;;;;85.13;41.00;;;6.60;99.90;;;;;;5072775;28;20051;-69
2022/12/01 00:48:10;;;;;;;84.55;41.28;;;6.60;99.90;;;;;;5072848;28;20045;-69
2022/12/01 00:50:36;;;;;;;71.50;38.42;;;6.60;99.90;;;;;;5072796;28;20117;-69
2022/12/01 00:53:01;;;;;;;78.72;39.75;;;6.60;99.90;;;;;;5072588;28;20124;-69
2022/12/01 00:55:27;;;;;;;77.47;38.75;;;6.60;99.90;;;;;;5072706;28;20044;-69
2022/12/01 00:57:52;;;;;;;83.85;40.65;;;6.60;99.90;;;;;;5072927;28;20039;-69
2022/12/01 01:00:18;;;;;;;74.15;38.85;;;6.60;99.90;;;;;;5072614;28;20515;-69
2022/12/01 01:02:44;;;;;;;79.55;39.38;;;6.60;99.90;;;;;;5072436;28;20084;-69
2022/12/01 01:05:09;;;;;;;70.50;39.55;;;6.60;99.90;;;;;;5072549;28;20047;-69
2022/12/01 01:07:35;;;;;;;70.25;37.92;;;6.60;99.90;;;;;;5072751;28;20059;-69
2022/12/01 01:10:00;;;;;;;78.75;40.45;;;6.60;99.90;;;;;;5072468;28;20497;-69
2022/12/01 01:12:26;;;;;;;72.10;38.90;;;6.60;99.90;;;;;;5072324;28;20071;-69
2022/12/01 01:14:52;;;;;;;79.60;40.13;;;6.60;99.90;;;;;;5073819;28;20089;-69
2022/12/01 01:17:18;;;;;;;78.10;39.53;;;6.70;99.90;;;;;;5072538;28;20119;-69
2022/12/01 01:19:44;;;;;;;69.70;36.08;;;6.60;99.90;;;;;;5072289;28;20036;-69
2022/12/01 01:22:10;;;;;;;73.00;37.05;;;6.60;99.90;;;;;;5072263;28;20074;-69
2022/12/01 01:24:35;;;;;;;72.00;38.72;;;6.60;99.90;;;;;;5072119;28;20093;-69
2022/12/01 01:27:01;;;;;;;66.18;36.40;;;6.60;99.90;;;;;;5072135;28;20052;-69
2022/12/01 01:29:26;;;;;;;66.55;36.20;;;6.60;99.90;;;;;;5072124;28;20045;-69
2022/12/01 01:31:52;;;;;;;69.95;37.20;;;6.60;99.90;;;;;;5073239;28;20037;-69
2022/12/01 01:34:18;;;;;;;73.45;39.08;;;6.60;99.90;;;;;;5072787;28;20040;-69
2022/12/01 01:36:43;;;;;;;70.55;38.42;;;6.60;99.90;;;;;;5072302;28;20047;-69
2022/12/01 01:39:09;;;;;;;76.10;37.53;;;6.60;99.90;;;;;;5071997;28;20509;-69
2022/12/01 01:41:35;;;;;;;77.75;39.08;;;6.60;99.90;;;;;;5071614;28;20036;-69
2022/12/01 01:44:02;;;;;;;74.13;39.38;;;6.60;99.90;;;;;;5071898;28;20558;-69
2022/12/01 01:46:30;;;;;;;68.30;38.78;;;6.60;99.90;;;;;;5072032;28;20037;-69
2022/12/01 01:49:12;;;;;;;74.15;38.28;;;6.60;99.90;;;;;;5071888;28;20123;-69
2022/12/01 01:51:44;;;;;;;70.03;36.80;;;6.60;99.90;;;;;;5071855;28;20037;-69
2022/12/01 01:54:14;;;;;;;71.13;37.70;;;6.70;99.90;;;;;;5071824;28;20090;-69
2022/12/01 01:56:42;;;;;;;74.95;39.10;;;6.60;99.90;;;;;;5071844;28;20048;-69
2022/12/01 01:59:10;;;;;;;70.22;38.92;;;6.60;99.90;;;;;;5071720;28;20074;-69
2022/12/01 02:01:35;;;;;;;72.32;37.83;;;6.60;99.90;;;;;;5071774;28;20047;-69
2022/12/01 02:04:02;;;;;;;70.22;40.15;;;6.60;99.90;;;;;;5072183;28;20044;-69
2022/12/01 02:06:28;;;;;;;66.32;37.42;;;6.60;99.90;;;;;;5071696;28;20040;-69
2022/12/01 02:08:54;;;;;;;74.05;37.42;;;6.60;99.90;;;;;;5071716;28;20044;-69
2022/12/01 02:11:49;;;;;;;71.68;37.92;;;6.60;99.90;;;;;;5071929;28;20044;-69
2022/12/01 02:14:32;;;;;;;68.25;37.67;;;6.70;99.90;;;;;;5072863;28;20505;-69
2022/12/01 02:17:11;;;;;;;67.33;38.23;;;6.60;99.90;;;;;;5054951;28;20040;-69
2022/12/01 02:20:08;;;;;;;73.35;39.15;;;6.60;99.90;;;;;;5073187;28;20048;-69
2022/12/01 02:23:06;;;;;;;73.40;40.05;;;6.60;99.90;;;;;;5071545;28;20041;-69
2022/12/01 02:25:49;;;;;;;66.72;37.83;;;6.60;99.90;;;;;;5071501;28;20044;-69
2022/12/01 02:28:34;;;;;;;73.72;39.67;;;6.50;99.90;;;;;;5071584;28;20091;-69
2022/12/01 02:31:17;;;;;;;69.78;38.95;;;6.60;99.90;;;;;;5071803;28;20090;-69
2022/12/01 02:34:10;;;;;;;75.15;41.13;;;6.60;99.90;;;;;;5071353;28;20047;-69
2022/12/01 02:36:55;;;;;;;79.55;41.42;;;6.60;99.90;;;;;;5071471;28;20040;-69
2022/12/01 02:39:37;;;;;;;76.78;40.97;;;6.60;99.90;;;;;;5071484;28;20048;-69
2022/12/01 02:42:48;;;;;;;79.40;39.88;;;6.60;99.90;;;;;;5071408;28;20546;-69
2022/12/01 02:45:09;;;;;;;71.80;40.13;;;6.60;99.90;;;;;;5071318;28;20074;-69
2022/12/01 02:47:37;;;;;;;74.93;41.30;;;6.50;99.90;;;;;;5071367;28;20517;-69
2022/12/01 02:50:03;;;;;;;69.30;40.00;;;6.50;99.90;;;;;;5073065;28;20041;-69
2022/12/01 02:52:29;;;;;;;77.25;41.70;;;6.50;99.90;;;;;;5073013;28;20041;-69
2022/12/01 02:54:56;;;;;;;79.75;41.50;;;6.50;99.90;;;;;;5074928;28;20047;-69
2022/12/01 02:57:23;;;;;;;76.35;43.30;;;6.50;99.90;;;;;;5074966;28;20050;-69
2022/12/01 02:59:53;;;;;;;77.55;41.67;;;6.50;99.90;;;;;;5074917;28;20408;-69
2022/12/01 03:02:41;;;;;;;78.65;41.13;;;6.50;99.90;;;;;;5075200;28;20127;-69
2022/12/01 03:05:47;;;;;;;70.35;38.90;;;6.60;99.90;;;;;;5075130;28;20059;-69
2022/12/01 03:08:31;;;;;;;77.50;40.47;;;6.60;99.90;;;;;;5075100;28;20052;-69
2022/12/01 03:10:59;;;;;;;77.72;42.47;;;6.50;99.90;;;;;;5074765;28;20040;-69
2022/12/01 03:13:39;;;;;;;71.85;40.35;;;6.50;99.90;;;;;;5074568;28;20043;-69
2022/12/01 03:16:26;;;;;;;78.97;42.33;;;6.60;99.90;;;;;;5074656;28;20493;-69
2022/12/01 03:19:34;;;;;;;76.13;42.42;;;6.60;99.90;;;;;;5075900;28;20044;-69
2022/12/01 03:22:07;;;;;;;76.60;41.00;;;6.50;99.90;;;;;;5073965;28;20044;-69
2022/12/01 03:24:35;;;;;;;79.13;41.05;;;6.50;99.90;;;;;;5074456;28;20041;-69
2022/12/01 03:27:01;;;;;;;78.20;41.30;;;6.50;99.90;;;;;;5074431;28;20408;-69
2022/12/01 03:29:38;;;;;;;71.53;41.83;;;6.50;99.90;;;;;;5074418;28;20032;-69
2022/12/01 03:32:19;;;;;;;78.25;42.28;;;6.50;99.90;;;;;;5074305;28;20072;-69
2022/12/01 03:34:50;;;;;;;79.60;41.47;;;6.50;99.90;;;;;;5074554;28;20490;-69
2022/12/01 03:37:36;;;;;;;77.15;43.67;;;6.40;99.90;;;;;;5074343;28;20043;-69
2022/12/01 03:40:06;;;;;;;71.57;41.40;;;6.50;99.90;;;;;;5074529;28;20040;-69
2022/12/01 03:42:41;;;;;;;84.32;44.50;;;6.40;99.90;;;;;;5074445;28;20165;-69
2022/12/01 03:45:18;;;;;;;79.45;42.65;;;6.50;99.90;;;;;;5074814;28;20048;-69
2022/12/01 03:47:44;;;;;;;83.15;43.10;;;6.50;99.90;;;;;;5074358;28;20508;-69
2022/12/01 03:50:12;;;;;;;83.97;44.17;;;6.40;99.90;;;;;;5074057;28;20054;-69
2022/12/01 03:53:05;;;;;;;80.55;44.08;;;6.50;99.90;;;;;;5073850;28;20090;-69
2022/12/01 03:55:37;;;;;;;81.47;43.63;;;6.50;99.90;;;;;;5074273;28;20051;-69
2022/12/01 03:58:12;;;;;;;78.07;42.17;;;6.40;99.90;;;;;;5073962;28;20068;-69
2022/12/01 04:00:38;;;;;;;79.10;43.95;;;6.40;99.90;;;;;;5074133;28;20523;-69
2022/12/01 04:03:05;;;;;;;81.57;44.92;;;6.40;99.90;;;;;;5073643;28;20524;-69
2022/12/01 04:05:32;;;;;;;79.13;41.88;;;6.50;99.90;;;;;;5075289;28;20385;-69
2022/12/01 04:07:59;;;;;;;83.20;42.83;;;6.40;99.90;;;;;;5073991;28;20049;-69
2022/12/01 04:10:25;;;;;;;77.45;42.33;;;6.40;99.90;;;;;;5073688;28;20123;-69
2022/12/01 04:12:57;;;;;;;77.45;42.53;;;6.40;99.90;;;;;;5073493;28;20120;-69
2022/12/01 04:15:23;;;;;;;83.93;43.40;;;6.40;99.90;;;;;;5073637;28;20124;-69
2022/12/01 04:17:48;;;;;;;79.88;42.75;;;6.50;99.90;;;;;;5073520;28;20072;-69
2022/12/01 04:20:16;;;;;;;87.18;43.58;;;6.50;99.90;;;;;;5073445;28;20068;-69
2022/12/01 04:22:41;;;;;;;73.15;42.05;;;6.50;99.90;;;;;;5073586;28;20117;-69
2022/12/01 04:25:08;;;;;;;80.18;43.63;;;6.40;99.90;;;;;;5073362;28;20525;-69
2022/12/01 04:27:34;;;;;;;80.60;42.50;;;6.40;99.90;;;;;;5073281;28;20513;-69
2022/12/01 04:29:59;;;;;;;87.18;45.17;;;6.50;99.90;;;;;;5073539;28;20068;-69
2022/12/01 04:32:25;;;;;;;81.07;44.22;;;6.40;99.90;;;;;;5073148;28;20522;-69
2022/12/01 04:34:51;;;;;;;82.68;44.75;;;6.40;99.90;;;;;;5073101;28;20043;-69
2022/12/01 04:37:17;;;;;;;83.88;44.33;;;6.40;99.90;;;;;;5073159;28;20119;-69
2022/12/01 04:39:43;;;;;;;83.57;44.55;;;6.40;99.90;;;;;;5073078;28;20489;-69
2022/12/01 04:42:09;;;;;;;84.20;43.35;;;6.40;99.90;;;;;;5073019;28;20097;-69
2022/12/01 04:44:35;;;;;;;84.10;43.90;;;6.40;99.90;;;;;;5072875;28;20127;-69
2022/12/01 04:47:02;;;;;;;87.93;45.53;;;6.40;99.90;;;;;;5073076;28;20044;-69
2022/12/01 04:49:28;;;;;;;86.53;45.13;;;6.40;99.90;;;;;;5072899;28;20051;-69
2022/12/01 04:51:54;;;;;;;82.63;44.90;;;6.40;99.90;;;;;;5072697;28;20040;-69
2022/12/01 04:54:20;;;;;;;91.25;46.38;;;6.40;99.90;;;;;;5072970;28;20037;-69
2022/12/01 04:56:45;;;;;;;90.03;48.17;;;6.40;99.90;;;;;;5072953;28;20174;-69
2022/12/01 04:59:11;;;;;;;88.07;46.13;;;6.40;99.90;;;;;;5072713;28;20500;-69
2022/12/01 05:01:37;;;;;;;87.68;45.45;;;6.40;99.90;;;;;;5072616;28;20040;-69
2022/12/01 05:04:03;;;;;;;91.68;46.90;;;6.40;99.90;;;;;;5072477;28;20051;-69
2022/12/01 05:06:29;;;;;;;99.07;48.13;;;6.40;99.90;;;;;;5072527;28;20036;-69
2022/12/01 05:08:58;;;;;;;93.22;47.15;;;6.40;99.90;;;;;;5072507;28;20040;-69
2022/12/01 05:11:26;;;;;;;94.57;48.08;;;6.40;99.90;;;;;;5072416;28;20048;-69
2022/12/01 05:13:52;;;;;;;88.05;46.47;;;6.40;99.90;;;;;;5072264;28;20052;-69
2022/12/01 05:16:20;;;;;;;91.70;47.03;;;6.40;99.90;;;;;;5054784;28;20124;-69
2022/12/01 05:18:48;;;;;;;89.85;46.47;;;6.40;99.90;;;;;;5072572;28;20549;-69
2022/12/01 05:21:13;;;;;;;85.10;45.85;;;6.40;99.90;;;;;;5072292;28;20044;-69
2022/12/01 05:23:39;;;;;;;91.70;45.80;;;6.40;99.90;;;;;;5072189;28;20055;-69
2022/12/01 05:26:07;;;;;;;95.63;46.78;;;6.40;99.90;;;;;;5072158;28;20048;-69
2022/12/01 05:28:32;;;;;;;100.30;48.28;;;6.40;99.90;;;;;;5072405;28;20041;-69
2022/12/01 05:30:58;;;;;;;96.28;46.83;;;6.40;99.90;;;;;;5072378;28;20036;-69
2022/12/01 05:33:25;;;;;;;88.35;46.47;;;6.40;99.90;;;;;;5071946;28;20614;-69
2022/12/01 05:35:51;;;;;;;90.88;46.60;;;6.40;99.90;;;;;;5072342;28;20032;-69
2022/12/01 05:38:17;;;;;;;94.47;46.00;;;6.40;99.90;;;;;;5072091;28;20405;-69
2022/12/01 05:40:50;;;;;;;92.55;47.65;;;6.40;99.90;;;;;;5071996;28;20471;-69
2022/12/01 05:43:15;;;;;;;88.03;45.33;;;6.40;99.90;;;;;;5055296;28;20070;-69
2022/12/01 05:45:41;;;;;;;91.95;46.00;;;6.40;99.90;;;;;;5072205;28;20130;-69
2022/12/01 05:48:08;;;;;;;92.07;47.05;;;6.40;99.90;;;;;;5071913;28;20406;-69
2022/12/01 05:50:37;;;;;;;92.00;46.72;;;6.40;99.90;;;;;;5071884;28;20052;-69
2022/12/01 05:53:03;;;;;;;84.65;45.08;;;6.40;99.90;;;;;;5071662;28;20091;-69
2022/12/01 05:55:28;;;;;;;91.53;47.00;;;6.40;99.90;;;;;;5071846;28;20075;-69
2022/12/01 05:57:54;;;;;;;96.53;46.00;;;6.40;99.90;;;;;;5072101;28;20037;-69
2022/12/01 06:00:20;;;;;;;95.75;46.42;;;6.40;99.90;;;;;;5071777;28;20390;-69
2022/12/01 06:02:45;;;;;;;94.95;48.03;;;6.40;99.90;;;;;;5071952;28;20103;-69
2022/12/01 06:05:11;;;;;;;87.63;45.80;;;6.40;99.90;;;;;;5072961;28;20437;-69
2022/12/01 06:07:39;;;;;;;92.38;46.63;;;6.40;99.90;;;;;;5073204;28;20072;-69
2022/12/01 06:10:05;;;;;;;89.80;44.95;;;6.40;99.90;;;;;;5071673;28;20055;-69
2022/12/01 06:12:31;;;;;;;93.47;47.45;;;6.40;99.90;;;;;;5071619;28;20576;-69
2022/12/01 06:14:56;;;;;;;97.82;48.08;;;6.40;99.90;;;;;;5073839;28;20064;-69
2022/12/01 06:17:22;;;;;;;95.85;48.58;;;6.40;99.90;;;;;;5071881;28;20516;-69
2022/12/01 06:19:47;;;;;;;97.65;47.65;;;6.40;99.90;;;;;;5071871;28;20393;-69
2022/12/01 06:22:13;;;;;;;94.22;47.90;;;6.30;99.90;;;;;;5071860;28;20404;-69
2022/12/01 06:24:38;;;;;;;87.97;44.67;;;6.30;99.90;;;;;;5071458;28;20095;-69
2022/12/01 06:27:04;;;;;;;95.95;46.35;;;6.30;99.90;;;;;;5072717;28;20047;-68
2022/12/01 06:29:30;;;;;;;90.93;46.67;;;6.30;99.90;;;;;;5075843;28;20127;-68
2022/12/01 06:31:55;;;;;;;90.50;46.30;;;6.30;99.90;;;;;;5075452;28;20043;-69
2022/12/01 06:34:21;;;;;;;90.25;46.20;;;6.30;99.90;;;;;;5075404;28;20044;-69
2022/12/01 06:36:47;;;;;;;87.28;45.30;;;6.30;99.90;;;;;;5075678;28;20078;-69
2022/12/01 06:39:14;;;;;;;85.75;44.40;;;6.30;99.90;;;;;;5075637;28;20041;-69
2022/12/01 06:41:39;;;;;;;92.70;46.65;;;6.30;99.90;;;;;;5076623;28;20517;-69
2022/12/01 06:44:05;;;;;;;100.65;46.92;;;6.30;99.90;;;;;;5075211;28;20084;-69
2022/12/01 06:46:31;;;;;;;95.68;47.47;;;6.20;99.90;;;;;;5075134;28;20049;-69
2022/12/01 06:48:56;;;;;;;92.57;46.17;;;6.20;99.90;;;;;;5075214;28;20083;-69
2022/12/01 06:51:22;;;;;;;100.53;48.95;;;6.20;99.90;;;;;;5075141;28;20060;-69
2022/12/01 06:53:52;;;;;;;100.60;47.45;;;6.20;99.90;;;;;;5074997;28;20067;-69
2022/12/01 06:56:18;;;;;;;93.68;45.75;;;6.20;99.90;;;;;;5075158;28;20052;-69
2022/12/01 06:58:43;;;;;;;93.60;46.85;;;6.10;99.90;;;;;;5058606;28;20041;-69
2022/12/01 07:01:10;;;;;;;93.20;45.88;;;6.20;99.90;;;;;;5074902;28;20075;-68
2022/12/01 07:03:37;;;;;;;91.63;43.88;;;6.20;99.90;;;;;;5074853;28;20036;-69
2022/12/01 07:06:03;;;;;;;89.57;45.90;;;6.10;99.90;;;;;;5075066;28;20065;-69
2022/12/01 07:08:30;;;;;;;87.47;44.15;;;6.20;99.90;;;;;;5074844;28;20047;-69
2022/12/01 07:11:00;;;;;;;92.05;44.33;;;6.10;99.90;;;;;;5075026;28;20053;-69
2022/12/01 07:13:26;;;;;;;88.00;44.17;;;6.20;99.90;;;;;;5074628;28;20051;-69
2022/12/01 07:15:51;;;;;;;91.32;44.95;;;6.20;99.90;;;;;;5074987;28;20036;-69
2022/12/01 07:18:17;;;;;;;86.53;45.65;;;6.20;99.90;;;;;;5075915;28;20401;-69
2022/12/01 07:20:43;;;;;;;88.93;43.22;;;6.20;99.90;;;;;;5057963;28;20072;-69
2022/12/01 07:23:08;;;;;;;88.55;44.53;;;6.20;99.90;;;;;;5074478;28;20075;-69
2022/12/01 07:25:34;;;;;;;85.32;44.17;;;6.20;99.90;;;;;;5074502;28;20044;-69
2022/12/01 07:27:59;;;;;;;83.85;42.75;;;6.20;99.90;;;;;;5074458;28;20052;-69
2022/12/01 07:30:25;;;;;;;89.13;44.80;;;6.20;99.90;;;;;;5074520;28;20053;-68
2022/12/01 07:32:50;;;;;;;89.00;44.67;;;6.20;99.90;;;;;;5074501;28;20045;-68
2022/12/01 07:35:16;;;;;;;85.72;44.05;;;6.20;99.90;;;;;;5074427;28;20408;-68
2022/12/01 07:37:41;;;;;;;85.72;43.58;;;6.20;99.90;;;;;;5074205;28;20114;-68
2022/12/01 07:40:09;;;;;;;90.82;45.65;;;6.30;99.90;;;;;;5073444;28;20044;-68
2022/12/01 07:42:34;;;;;;;91.05;46.05;;;6.30;99.90;;;;;;5074242;28;20070;-68
2022/12/01 07:45:00;;;;;;;95.40;46.50;;;6.20;99.90;;;;;;5074061;28;20040;-69
2022/12/01 07:47:25;;;;;;;92.30;44.05;;;6.20;99.90;;;;;;5057567;28;20089;-69
2022/12/01 07:49:51;;;;;;;86.68;45.35;;;6.20;99.90;;;;;;5074424;28;20048;-69
2022/12/01 07:52:17;;;;;;;85.57;44.58;;;6.20;99.90;;;;;;5074017;28;20048;-69
2022/12/01 07:54:42;;;;;;;98.35;45.85;;;6.20;99.90;;;;;;5073993;28;20106;-69
2022/12/01 07:57:08;;;;;;;88.53;44.97;;;6.20;99.90;;;;;;5074037;28;20186;-69
2022/12/01 07:59:33;;;;;;;88.63;45.22;;;6.20;99.90;;;;;;5074266;28;20041;-69
2022/12/01 08:01:59;;;;;;;97.35;46.47;;;6.20;99.90;;;;;;5073919;28;20455;-69
2022/12/01 08:04:24;;;;;;;97.82;47.08;;;6.20;99.90;;;;;;5073774;28;20048;-69
2022/12/01 08:06:50;;;;;;;97.75;48.17;;;6.30;99.90;;;;;;5073872;28;20123;-69
2022/12/01 08:09:16;;;;;;;94.63;46.88;;;6.30;99.90;;;;;;5073820;28;20041;-69
2022/12/01 08:11:41;;;;;;;99.22;47.35;;;6.30;99.90;;;;;;5073705;28;20098;-69
2022/12/01 08:14:07;;;;;;;95.05;47.53;;;6.30;99.90;;;;;;5073595;28;20048;-69
2022/12/01 08:16:32;;;;;;;102.28;47.15;;;6.30;99.90;;;;;;5073785;28;20535;-68
2022/12/01 08:18:58;;;;;;;105.82;47.28;;;6.30;99.90;;;;;;5073723;28;20123;-68
2022/12/01 08:21:24;;;;;;;109.25;48.10;;;6.30;99.90;;;;;;5073657;28;20492;-69
2022/12/01 08:23:54;;;;;;;107.70;49.15;;;6.30;99.90;;;;;;5073671;28;20059;-69
2022/12/01 08:26:21;;;;;;;102.43;47.30;;;6.30;99.90;;;;;;5073638;28;20068;-69
2022/12/01 08:28:47;;;;;;;94.68;46.30;;;6.30;99.90;;;;;;5073555;28;20040;-73
2022/12/01 08:31:16;;;;;;;97.82;46.90;;;6.20;99.90;;;;;;5073283;28;20098;-69
2022/12/01 08:33:41;;;;;;;94.25;44.72;;;6.20;99.90;;;;;;5073160;28;20051;-69
2022/12/01 08:36:07;;;;;;;103.78;46.92;;;6.10;99.90;;;;;;5073216;28;20045;-69
2022/12/01 08:38:33;;;;;;;98.13;46.20;;;6.10;99.90;;;;;;5073227;28;20037;-69
2022/12/01 08:41:04;;;;;;;96.70;45.15;;;6.00;99.90;;;;;;5074959;28;20059;-69
2022/12/01 08:43:30;;;;;;;95.65;45.22;;;6.00;99.90;;;;;;5073035;28;20558;-69
2022/12/01 08:46:00;;;;;;;96.25;45.88;;;6.00;99.90;;;;;;5072930;28;20127;-69
2022/12/01 08:48:28;;;;;;;98.70;46.67;;;5.90;99.90;;;;;;5072968;28;20040;-69
2022/12/01 08:51:04;;;;;;;94.75;45.35;;;5.90;99.90;;;;;;5072644;28;20048;-69
2022/12/01 08:53:31;;;;;;;99.75;46.42;;;6.00;99.90;;;;;;5072685;28;20048;-69
2022/12/01 08:56:00;;;;;;;96.15;45.78;;;5.90;99.90;;;;;;5073022;28;20094;-69
2022/12/01 08:58:26;;;;;;;95.18;45.67;;;5.90;99.90;;;;;;5074047;28;20083;-69
2022/12/01 09:00:52;;;;;;;93.85;45.83;;;5.90;99.90;;;;;;5072988;28;20048;-69
2022/12/01 09:03:17;;;;;;;104.68;47.08;;;5.90;99.90;;;;;;5073892;28;20522;-69
2022/12/01 09:05:43;;;;;;;110.78;48.95;;;5.90;99.90;;;;;;5072629;28;20113;-68
2022/12/01 09:10:52;;;;;;;102.10;48.22;;;5.90;99.90;;;;;;5072567;28;20048;-68
2022/12/01 09:13:18;;;;;;;93.07;47.78;;;5.90;99.90;;;;;;5072298;28;20045;-69
2022/12/01 09:15:43;;;;;;;114.18;51.28;;;6.00;99.90;;;;;;5072413;28;20091;-68
2022/12/01 09:18:09;;;;;;;105.07;50.28;;;5.90;99.90;;;;;;5072386;28;20040;-68
2022/12/01 09:20:35;;;;;;;104.85;49.92;;;5.90;99.90;;;;;;5072654;28;20123;-69
2022/12/01 09:23:00;;;;;;;97.43;48.70;;;5.90;99.90;;;;;;5072521;28;20405;-69
2022/12/01 09:25:26;;;;;;;103.95;49.20;;;5.90;99.90;;;;;;5072284;28;20056;-70
2022/12/01 09:27:51;;;;;;;105.38;48.38;;;5.90;99.90;;;;;;5072273;28;20040;-70
2022/12/01 09:30:17;;;;;;;98.90;47.58;;;5.90;99.90;;;;;;5073516;28;20072;-69
2022/12/01 09:32:42;;;;;;;89.07;45.63;;;5.90;99.90;;;;;;5072055;28;20044;-69
2022/12/01 09:35:08;;;;;;;88.90;45.60;;;5.80;99.90;;;;;;5072195;28;20040;-69
2022/12/01 09:37:34;;;;;;;87.43;44.30;;;5.80;99.90;;;;;;5072405;28;20040;-69
2022/12/01 09:40:00;;;;;;;91.55;45.50;;;5.80;99.90;;;;;;5072148;28;20485;-69
2022/12/01 09:42:26;;;;;;;92.97;45.45;;;5.80;99.90;;;;;;5072092;28;20071;-69
2022/12/01 09:44:56;;;;;;;97.35;46.53;;;5.70;99.90;;;;;;5072157;28;20056;-69
2022/12/01 09:47:33;;;;;;;83.68;45.47;;;5.70;99.90;;;;;;5071900;28;20051;-69
2022/12/01 09:50:08;;;;;;;95.55;47.22;;;5.70;99.90;;;;;;5072022;28;20040;-69
2022/12/01 09:52:48;;;;;;;100.20;48.17;;;5.70;99.90;;;;;;5055411;28;20048;-69
2022/12/01 09:55:16;;;;;;;87.65;45.00;;;5.70;99.90;;;;;;5071942;28;20080;-69
2022/12/01 09:57:45;;;;;;;93.95;46.55;;;5.70;99.90;;;;;;5071915;28;20036;-69
2022/12/01 10:00:16;;;;;;;104.15;48.35;;;5.70;99.90;;;;;;5072115;28;20040;-70
2022/12/01 10:03:09;;;;;;;100.25;46.95;;;5.70;99.90;;;;;;5071127;28;20054;-69
2022/12/01 10:05:57;;;;;;;91.80;46.53;;;5.80;99.90;;;;;;5071899;28;20094;-69
2022/12/01 10:08:30;;;;;;;94.53;46.63;;;5.90;99.90;;;;;;5072892;28;20345;-69
2022/12/01 10:11:05;;;;;;;70.07;35.72;;;6.00;99.90;;;;;;5071799;28;20055;-69
2022/12/01 10:13:32;;;;;;;94.28;46.90;;;6.10;99.90;;;;;;5071665;28;20544;-69
2022/12/01 10:16:10;;;;;;;85.45;43.85;;;6.20;99.90;;;;;;5071683;28;20409;-69
2022/12/01 10:19:17;;;;;;;92.28;45.60;;;6.30;99.90;;;;;;5072113;28;20059;-69
2022/12/01 10:22:15;;;;;;;92.35;44.90;;;6.40;99.90;;;;;;5014684;28;20081;-69
2022/12/01 10:25:02;;;;;;;89.03;43.78;;;6.50;99.90;;;;;;5063403;28;20463;-69
2022/12/01 10:27:52;;;;;;;83.93;43.47;;;6.60;99.90;;;;;;5071619;28;20405;-70
2022/12/01 10:30:21;;;;;;;88.25;43.17;;;6.60;99.90;;;;;;5071592;28;20090;-69
2022/12/01 10:33:24;;;;;;;86.70;43.42;;;6.70;99.90;;;;;;5071600;28;20045;-69
2022/12/01 10:35:50;;;;;;;;;;;6.80;99.90;;;;;;5072237;28;20041;-69
2022/12/01 10:38:36;;;;;;;73.30;40.60;;;6.80;99.90;;;;;;5071521;28;19930;-69
2022/12/01 10:41:04;;;;;;;76.10;41.75;;;6.90;99.90;;;;;;5071737;28;20076;-69
2022/12/01 10:43:40;;;;;;;81.25;42.30;;;7.00;99.90;;;;;;5071384;28;20119;-69
2022/12/01 10:46:32;;;;;;;71.53;40.25;;;7.10;99.90;;;;;;5071626;28;20036;-69
2022/12/01 10:49:05;;;;;;;76.00;40.85;;;7.20;99.90;;;;;;5071667;28;20110;-69
2022/12/01 10:51:44;;;;;;;;;;;7.20;99.90;;;;;;5071810;28;20462;-69
2022/12/01 10:54:10;;;;;;;73.32;40.53;;;7.20;99.90;;;;;;5071252;28;20393;-69
2022/12/01 10:56:39;;;;;;;67.72;37.58;;;7.20;99.90;;;;;;5071593;28;20068;-69
2022/12/01 10:59:22;;;;;;;69.25;38.78;;;7.30;99.90;;;;;;5071270;28;20047;-69
2022/12/01 11:01:48;;;;;;;68.80;38.67;;;7.30;99.90;;;;;;5071338;28;20036;-69
2022/12/01 11:04:30;;;;;;;63.42;36.30;;;7.30;99.90;;;;;;5071176;28;20041;-70
2022/12/01 11:06:56;;;;;;;64.45;36.67;;;7.30;99.90;;;;;;5071270;28;20493;-69
2022/12/01 11:09:26;;;;;;;67.50;37.72;;;7.30;99.90;;;;;;5071207;28;20094;-70
2022/12/01 11:11:56;;;;;;;61.78;37.45;;;7.30;99.90;;;;;;5071506;28;20055;-69
2022/12/01 11:14:28;;;;;;;64.07;35.88;;;7.40;99.90;;;;;;5074097;28;20041;-70
2022/12/01 11:16:54;;;;;;;66.65;36.85;;;7.40;99.90;;;;;;5074819;28;20037;-69
2022/12/01 11:19:31;;;;;;;64.28;36.63;;;7.40;99.90;;;;;;5074779;28;20086;-69
2022/12/01 11:22:16;;;;;;;61.88;35.22;;;7.50;99.90;;;;;;5075057;28;20037;-69
2022/12/01 11:24:49;;;;;;;68.10;37.45;;;7.50;99.90;;;;;;5074691;28;20159;-69
2022/12/01 11:27:18;;;;;;;58.08;35.30;;;7.50;99.90;;;;;;5074697;28;20097;-69
2022/12/01 11:29:46;;;;;;;66.88;35.83;;;7.50;99.90;;;;;;5074583;28;20093;-69
2022/12/01 11:32:22;;;;;;;60.30;35.03;;;7.50;99.90;;;;;;5074900;28;20232;-69
2022/12/01 11:35:10;;;;;;;64.25;35.92;;;7.50;99.90;;;;;;5074678;28;20098;-69
2022/12/01 11:37:42;;;;;;;66.13;36.75;;;7.40;99.90;;;;;;5063683;28;20049;-69
2022/12/01 11:40:31;;;;;;;67.90;36.50;;;7.40;99.90;;;;;;5074700;28;20386;-69
2022/12/01 11:43:03;;;;;;;65.35;35.35;;;7.40;99.90;;;;;;5074514;28;20044;-68
2022/12/01 11:45:31;;;;;;;63.72;35.72;;;7.40;99.90;;;;;;5074421;28;20064;-68
2022/12/01 11:48:17;;;;;;;60.42;35.00;;;7.40;99.90;;;;;;5058584;28;20052;-68
2022/12/01 11:51:00;;;;;;;60.45;35.53;;;7.50;99.90;;;;;;5074456;28;20505;-68
2022/12/01 11:53:30;;;;;;;66.65;35.85;;;7.50;99.90;;;;;;5075023;28;20064;-69
2022/12/01 11:56:22;;;;;;;60.70;36.10;;;7.50;99.90;;;;;;5074053;28;20044;-69
2022/12/01 11:59:09;;;;;;;58.78;33.70;;;7.50;99.90;;;;;;5074018;28;20111;-69
2022/12/01 12:01:52;;;;;;;64.85;35.72;;;7.50;99.90;;;;;;5073841;28;20056;-68
2022/12/01 12:04:23;;;;;;;65.35;37.45;;;7.50;99.90;;;;;;5073945;28;20040;-68
2022/12/01 12:07:13;;;;;;;64.13;36.63;;;7.40;99.90;;;;;;5073902;28;20093;-69
2022/12/01 12:10:04;;;;;;;62.90;35.38;;;7.40;99.90;;;;;;5074102;28;20543;-69
2022/12/01 12:12:58;;;;;;;62.28;36.15;;;7.50;99.90;;;;;;5073673;28;20052;-69
2022/12/01 12:15:33;;;;;;;63.03;36.58;;;7.50;99.90;;;;;;5073866;28;20044;-69
2022/12/01 12:18:36;;;;;;;63.35;36.45;;;7.40;99.90;;;;;;5074052;28;20097;-69
2022/12/01 12:21:02;;;;;;;64.00;35.65;;;7.50;99.90;;;;;;5073876;28;20086;-69
2022/12/01 12:24:14;;;;;;;58.60;34.17;;;7.40;99.90;;;;;;5073429;28;20072;-69
2022/12/01 12:27:02;;;;;;;62.03;35.33;;;7.50;99.90;;;;;;5073338;28;20401;-69
2022/12/01 12:29:46;;;;;;;63.53;36.13;;;7.50;99.90;;;;;;5073685;28;20052;-69
2022/12/01 12:32:41;;;;;;;57.33;34.67;;;7.60;99.90;;;;;;5073215;28;20040;-69
2022/12/01 12:35:38;;;;;;;62.30;35.67;;;7.60;99.90;;;;;;5073297;28;20043;-69
2022/12/01 12:38:32;;;;;;;81.40;36.65;;;7.60;99.90;;;;;;5073253;28;20521;-69
2022/12/01 12:41:15;;;;;;;56.85;35.28;;;7.60;99.90;;;;;;5073224;28;20037;-69
2022/12/01 12:43:53;;;;;;;53.67;34.38;;;7.50;99.90;;;;;;5073052;28;20052;-69
2022/12/01 12:46:37;;;;;;;58.85;33.55;;;7.50;99.90;;;;;;5073174;28;20040;-69
2022/12/01 12:49:22;;;;;;;57.08;34.60;;;7.50;99.90;;;;;;5073327;28;20048;-69
2022/12/01 12:52:10;;;;;;;58.42;33.50;;;7.50;99.90;;;;;;5073007;28;20055;-69
2022/12/01 12:55:04;;;;;;;55.88;33.03;;;7.40;99.90;;;;;;5072778;28;20119;-69
2022/12/01 12:57:38;;;;;;;57.70;33.22;;;7.40;99.90;;;;;;5072903;28;20048;-69
2022/12/01 13:00:16;;;;;;;55.58;33.10;;;7.40;99.90;;;;;;5072826;28;20097;-69